sensor_id;sensor_type;location;lat;lon;timestamp;temperature;humidity
16174;DHT22;14031;50.158;8.626;2023-03-24T00:01:22;14.00;99.90
16174;DHT22;14031;50.158;8.626;2023-03-24T00:03:50;14.00;99.90
16174;DHT22;14031;50.158;8.626;2023-03-24T00:06:18;14.00;99.90
16174;DHT22;14031;50.158;8.626;2023-03-24T00:08:47;14.00;99.90
16174;DHT22;14031;50.158;8.626;2023-03-24T00:11:14;13.90;99.90
16174;DHT22;14031;50.158;8.626;2023-03-24T00:13:43;14.00;99.90
16174;DHT22;14031;50.158;8.626;2023-03-24T00:16:13;13.90;99.90
16174;DHT22;14031;50.158;8.626;2023-03-24T00:18:41;13.90;99.90
16174;DHT22;14031;50.158;8.626;2023-03-24T00:21:10;13.90;99.90
16174;DHT22;14031;50.158;8.626;2023-03-24T00:23:39;13.90;99.90
16174;DHT22;14031;50.158;8.626;2023-03-24T00:26:09;13.90;99.90
16174;DHT22;14031;50.158;8.626;2023-03-24T00:28:41;13.90;99.90
16174;DHT22;14031;50.158;8.626;2023-03-24T00:31:09;13.90;99.90
16174;DHT22;14031;50.158;8.626;2023-03-24T00:33:36;13.90;99.90
16174;DHT22;14031;50.158;8.626;2023-03-24T00:36:06;13.90;99.90
16174;DHT22;14031;50.158;8.626;2023-03-24T00:38:38;13.80;99.90
16174;DHT22;14031;50.158;8.626;2023-03-24T00:41:07;13.90;99.90
16174;DHT22;14031;50.158;8.626;2023-03-24T00:43:35;13.90;99.90
16174;DHT22;14031;50.158;8.626;2023-03-24T00:46:04;13.80;99.90
16174;DHT22;14031;50.158;8.626;2023-03-24T00:48:32;13.80;99.90
16174;DHT22;14031;50.158;8.626;2023-03-24T00:51:01;13.90;99.90
16174;DHT22;14031;50.158;8.626;2023-03-24T00:53:28;13.90;99.90
16174;DHT22;14031;50.158;8.626;2023-03-24T00:55:57;13.90;99.90
16174;DHT22;14031;50.158;8.626;2023-03-24T00:58:25;13.90;99.90
16174;DHT22;14031;50.158;8.626;2023-03-24T01:00:56;13.90;99.90
16174;DHT22;14031;50.158;8.626;2023-03-24T01:03:24;13.90;99.90
16174;DHT22;14031;50.158;8.626;2023-03-24T01:05:52;13.90;99.90
16174;DHT22;14031;50.158;8.626;2023-03-24T01:08:23;13.80;99.90
16174;DHT22;14031;50.158;8.626;2023-03-24T01:10:52;13.80;99.90
16174;DHT22;14031;50.158;8.626;2023-03-24T01:13:23;13.90;99.90
16174;DHT22;14031;50.158;8.626;2023-03-24T01:15:50;13.90;99.90
16174;DHT22;14031;50.158;8.626;2023-03-24T01:18:17;13.90;99.90
16174;DHT22;14031;50.158;8.626;2023-03-24T01:20:46;13.90;99.90
16174;DHT22;14031;50.158;8.626;2023-03-24T01:23:15;13.80;99.90
16174;DHT22;14031;50.158;8.626;2023-03-24T01:25:43;13.80;99.90
16174;DHT22;14031;50.158;8.626;2023-03-24T01:28:13;13.80;99.90
16174;DHT22;14031;50.158;8.626;2023-03-24T01:30:43;13.90;99.90
16174;DHT22;14031;50.158;8.626;2023-03-24T01:33:10;13.90;99.90
16174;DHT22;14031;50.158;8.626;2023-03-24T01:35:37;13.80;99.90
16174;DHT22;14031;50.158;8.626;2023-03-24T01:38:05;13.80;99.90
16174;DHT22;14031;50.158;8.626;2023-03-24T01:40:34;13.80;99.90
16174;DHT22;14031;50.158;8.626;2023-03-24T01:43:02;13.80;99.90
16174;DHT22;14031;50.158;8.626;2023-03-24T01:45:56;13.80;99.90
16174;DHT22;14031;50.158;8.626;2023-03-24T01:48:27;13.80;99.90
16174;DHT22;14031;50.158;8.626;2023-03-24T01:50:58;13.80;99.90
16174;DHT22;14031;50.158;8.626;2023-03-24T01:53:27;13.80;99.90
16174;DHT22;14031;50.158;8.626;2023-03-24T01:55:56;13.80;99.90
16174;DHT22;14031;50.158;8.626;2023-03-24T01:58:24;13.90;99.90
16174;DHT22;14031;50.158;8.626;2023-03-24T02:00:53;13.90;99.90
16174;DHT22;14031;50.158;8.626;2023-03-24T02:03:24;13.80;99.90
16174;DHT22;14031;50.158;8.626;2023-03-24T02:05:55;13.90;99.90
16174;DHT22;14031;50.158;8.626;2023-03-24T02:08:30;13.90;99.90
16174;DHT22;14031;50.158;8.626;2023-03-24T02:10:59;13.90;99.90
16174;DHT22;14031;50.158;8.626;2023-03-24T02:13:27;13.90;99.90
16174;DHT22;14031;50.158;8.626;2023-03-24T02:16:08;13.90;99.90
16174;DHT22;14031;50.158;8.626;2023-03-24T02:18:41;13.80;99.90
16174;DHT22;14031;50.158;8.626;2023-03-24T02:21:48;13.80;99.90
16174;DHT22;14031;50.158;8.626;2023-03-24T02:25:05;13.80;99.90
16174;DHT22;14031;50.158;8.626;2023-03-24T02:28:04;13.80;99.90
16174;DHT22;14031;50.158;8.626;2023-03-24T02:34:19;13.80;99.90
16174;DHT22;14031;50.158;8.626;2023-03-24T02:37:32;13.80;99.90
16174;DHT22;14031;50.158;8.626;2023-03-24T02:40:20;13.80;99.90
16174;DHT22;14031;50.158;8.626;2023-03-24T02:42:56;13.80;99.90
16174;DHT22;14031;50.158;8.626;2023-03-24T02:45:33;13.70;99.90
16174;DHT22;14031;50.158;8.626;2023-03-24T02:48:18;13.70;99.90
16174;DHT22;14031;50.158;8.626;2023-03-24T02:50:50;13.60;99.90
16174;DHT22;14031;50.158;8.626;2023-03-24T02:53:26;13.60;99.90
16174;DHT22;14031;50.158;8.626;2023-03-24T02:56:00;13.60;99.90
16174;DHT22;14031;50.158;8.626;2023-03-24T02:58:35;13.60;99.90
16174;DHT22;14031;50.158;8.626;2023-03-24T03:01:07;13.50;99.90
16174;DHT22;14031;50.158;8.626;2023-03-24T03:03:39;13.60;99.90
16174;DHT22;14031;50.158;8.626;2023-03-24T03:06:12;13.50;99.90
16174;DHT22;14031;50.158;8.626;2023-03-24T03:08:41;13.50;99.90
16174;DHT22;14031;50.158;8.626;2023-03-24T03:11:13;13.50;99.90
16174;DHT22;14031;50.158;8.626;2023-03-24T03:13:43;13.40;99.90
16174;DHT22;14031;50.158;8.626;2023-03-24T03:16:18;13.40;99.90
16174;DHT22;14031;50.158;8.626;2023-03-24T03:18:49;13.40;99.90
16174;DHT22;14031;50.158;8.626;2023-03-24T03:21:18;13.40;99.90
16174;DHT22;14031;50.158;8.626;2023-03-24T03:23:50;13.30;99.90
16174;DHT22;14031;50.158;8.626;2023-03-24T03:26:20;13.30;99.90
16174;DHT22;14031;50.158;8.626;2023-03-24T03:28:51;13.30;99.90
16174;DHT22;14031;50.158;8.626;2023-03-24T03:31:26;13.30;99.90
16174;DHT22;14031;50.158;8.626;2023-03-24T03:33:59;13.30;99.90
16174;DHT22;14031;50.158;8.626;2023-03-24T03:36:32;13.40;99.90
16174;DHT22;14031;50.158;8.626;2023-03-24T03:39:04;13.30;99.90
16174;DHT22;14031;50.158;8.626;2023-03-24T03:41:34;13.40;99.90
16174;DHT22;14031;50.158;8.626;2023-03-24T03:44:01;13.40;99.90
16174;DHT22;14031;50.158;8.626;2023-03-24T03:46:28;13.30;99.90
16174;DHT22;14031;50.158;8.626;2023-03-24T03:48:55;13.30;99.90
16174;DHT22;14031;50.158;8.626;2023-03-24T03:51:22;13.30;99.90
16174;DHT22;14031;50.158;8.626;2023-03-24T03:53:51;13.30;99.90
16174;DHT22;14031;50.158;8.626;2023-03-24T03:56:20;13.30;99.90
16174;DHT22;14031;50.158;8.626;2023-03-24T03:58:49;13.30;99.90
16174;DHT22;14031;50.158;8.626;2023-03-24T04:01:20;13.30;99.90
16174;DHT22;14031;50.158;8.626;2023-03-24T04:06:51;13.30;99.90
16174;DHT22;14031;50.158;8.626;2023-03-24T04:09:33;13.40;99.90
16174;DHT22;14031;50.158;8.626;2023-03-24T04:12:23;13.40;99.90
16174;DHT22;14031;50.158;8.626;2023-03-24T04:15:18;13.40;99.90
16174;DHT22;14031;50.158;8.626;2023-03-24T04:20:42;13.40;99.90
16174;DHT22;14031;50.158;8.626;2023-03-24T04:23:18;13.40;99.90
16174;DHT22;14031;50.158;8.626;2023-03-24T04:25:54;13.30;99.90
16174;DHT22;14031;50.158;8.626;2023-03-24T04:28:33;13.30;99.90
16174;DHT22;14031;50.158;8.626;2023-03-24T04:31:09;13.30;99.90
16174;DHT22;14031;50.158;8.626;2023-03-24T04:33:45;13.30;99.90
16174;DHT22;14031;50.158;8.626;2023-03-24T04:36:20;13.30;99.90
16174;DHT22;14031;50.158;8.626;2023-03-24T04:38:52;13.30;99.90
16174;DHT22;14031;50.158;8.626;2023-03-24T04:41:23;13.30;99.90
16174;DHT22;14031;50.158;8.626;2023-03-24T04:43:51;13.40;99.90
16174;DHT22;14031;50.158;8.626;2023-03-24T04:46:21;13.40;99.90
16174;DHT22;14031;50.158;8.626;2023-03-24T04:48:48;13.40;99.90
16174;DHT22;14031;50.158;8.626;2023-03-24T04:51:16;13.40;99.90
16174;DHT22;14031;50.158;8.626;2023-03-24T04:53:44;13.40;99.90
16174;DHT22;14031;50.158;8.626;2023-03-24T04:56:29;13.40;99.90
16174;DHT22;14031;50.158;8.626;2023-03-24T04:58:56;13.40;99.90
16174;DHT22;14031;50.158;8.626;2023-03-24T05:01:25;13.50;99.90
16174;DHT22;14031;50.158;8.626;2023-03-24T05:03:55;13.40;99.90
16174;DHT22;14031;50.158;8.626;2023-03-24T05:06:21;13.50;99.90
16174;DHT22;14031;50.158;8.626;2023-03-24T05:08:48;13.50;99.90
16174;DHT22;14031;50.158;8.626;2023-03-24T05:11:16;13.50;99.90
16174;DHT22;14031;50.158;8.626;2023-03-24T05:13:43;13.50;99.90
16174;DHT22;14031;50.158;8.626;2023-03-24T05:16:11;13.50;99.90
16174;DHT22;14031;50.158;8.626;2023-03-24T05:18:39;13.50;99.90
16174;DHT22;14031;50.158;8.626;2023-03-24T05:21:06;13.50;99.90
16174;DHT22;14031;50.158;8.626;2023-03-24T05:23:33;13.60;99.90
16174;DHT22;14031;50.158;8.626;2023-03-24T05:26:00;13.60;99.90
16174;DHT22;14031;50.158;8.626;2023-03-24T05:28:27;13.60;99.90
16174;DHT22;14031;50.158;8.626;2023-03-24T05:30:53;13.60;99.90
16174;DHT22;14031;50.158;8.626;2023-03-24T05:33:20;13.60;99.90
16174;DHT22;14031;50.158;8.626;2023-03-24T05:35:48;13.60;99.90
16174;DHT22;14031;50.158;8.626;2023-03-24T05:38:15;13.70;99.90
16174;DHT22;14031;50.158;8.626;2023-03-24T05:40:42;13.70;99.90
16174;DHT22;14031;50.158;8.626;2023-03-24T05:43:09;13.70;99.90
16174;DHT22;14031;50.158;8.626;2023-03-24T05:45:36;13.70;99.90
16174;DHT22;14031;50.158;8.626;2023-03-24T05:48:04;13.70;99.90
16174;DHT22;14031;50.158;8.626;2023-03-24T05:50:30;13.70;99.90
16174;DHT22;14031;50.158;8.626;2023-03-24T05:52:59;13.70;99.90
16174;DHT22;14031;50.158;8.626;2023-03-24T05:55:26;13.70;99.90
16174;DHT22;14031;50.158;8.626;2023-03-24T05:57:53;13.70;99.90
16174;DHT22;14031;50.158;8.626;2023-03-24T06:00:20;13.80;99.90
16174;DHT22;14031;50.158;8.626;2023-03-24T06:02:48;13.80;99.90
16174;DHT22;14031;50.158;8.626;2023-03-24T06:05:14;13.80;99.90
16174;DHT22;14031;50.158;8.626;2023-03-24T06:07:41;13.80;99.90
16174;DHT22;14031;50.158;8.626;2023-03-24T06:10:11;13.80;99.90
16174;DHT22;14031;50.158;8.626;2023-03-24T06:12:38;13.90;99.90
16174;DHT22;14031;50.158;8.626;2023-03-24T06:15:07;13.80;99.90
16174;DHT22;14031;50.158;8.626;2023-03-24T06:17:33;13.90;99.90
16174;DHT22;14031;50.158;8.626;2023-03-24T06:20:01;13.90;99.90
16174;DHT22;14031;50.158;8.626;2023-03-24T06:22:31;13.90;99.90
16174;DHT22;14031;50.158;8.626;2023-03-24T06:24:58;14.00;99.90
16174;DHT22;14031;50.158;8.626;2023-03-24T06:27:28;14.00;99.90
16174;DHT22;14031;50.158;8.626;2023-03-24T06:29:55;14.10;99.90
16174;DHT22;14031;50.158;8.626;2023-03-24T06:32:22;14.10;99.90
16174;DHT22;14031;50.158;8.626;2023-03-24T06:34:49;14.10;99.90
16174;DHT22;14031;50.158;8.626;2023-03-24T06:37:16;14.20;99.90
16174;DHT22;14031;50.158;8.626;2023-03-24T06:39:43;14.20;99.90
16174;DHT22;14031;50.158;8.626;2023-03-24T06:42:10;14.10;99.90
16174;DHT22;14031;50.158;8.626;2023-03-24T06:44:38;14.10;99.90
16174;DHT22;14031;50.158;8.626;2023-03-24T06:47:05;14.10;99.90
16174;DHT22;14031;50.158;8.626;2023-03-24T06:49:32;14.10;99.90
16174;DHT22;14031;50.158;8.626;2023-03-24T06:52:01;14.10;99.90
16174;DHT22;14031;50.158;8.626;2023-03-24T06:54:28;14.00;99.90
16174;DHT22;14031;50.158;8.626;2023-03-24T06:56:55;14.00;99.90
16174;DHT22;14031;50.158;8.626;2023-03-24T06:59:22;14.00;99.90
16174;DHT22;14031;50.158;8.626;2023-03-24T07:01:50;14.00;99.90
16174;DHT22;14031;50.158;8.626;2023-03-24T07:04:17;14.00;99.90
16174;DHT22;14031;50.158;8.626;2023-03-24T07:06:44;14.00;99.90
16174;DHT22;14031;50.158;8.626;2023-03-24T07:09:12;14.00;99.90
16174;DHT22;14031;50.158;8.626;2023-03-24T07:11:39;14.10;99.90
16174;DHT22;14031;50.158;8.626;2023-03-24T07:14:05;14.20;99.90
16174;DHT22;14031;50.158;8.626;2023-03-24T07:16:32;14.30;99.90
16174;DHT22;14031;50.158;8.626;2023-03-24T07:19:00;14.40;99.90
16174;DHT22;14031;50.158;8.626;2023-03-24T07:21:27;14.40;99.90
16174;DHT22;14031;50.158;8.626;2023-03-24T07:23:54;14.40;99.90
16174;DHT22;14031;50.158;8.626;2023-03-24T07:26:21;14.50;99.90
16174;DHT22;14031;50.158;8.626;2023-03-24T07:28:48;14.40;99.90
16174;DHT22;14031;50.158;8.626;2023-03-24T07:31:15;14.30;99.90
16174;DHT22;14031;50.158;8.626;2023-03-24T07:33:42;14.30;99.90
16174;DHT22;14031;50.158;8.626;2023-03-24T07:36:10;14.30;99.90
16174;DHT22;14031;50.158;8.626;2023-03-24T07:38:37;14.30;99.90
16174;DHT22;14031;50.158;8.626;2023-03-24T07:41:04;14.30;99.90
16174;DHT22;14031;50.158;8.626;2023-03-24T07:43:30;14.30;99.90
16174;DHT22;14031;50.158;8.626;2023-03-24T07:45:57;14.30;99.90
16174;DHT22;14031;50.158;8.626;2023-03-24T07:48:24;14.20;99.90
16174;DHT22;14031;50.158;8.626;2023-03-24T07:50:52;14.20;99.90
16174;DHT22;14031;50.158;8.626;2023-03-24T07:53:20;14.20;99.90
16174;DHT22;14031;50.158;8.626;2023-03-24T07:55:47;14.20;99.90
16174;DHT22;14031;50.158;8.626;2023-03-24T07:58:14;14.10;99.90
16174;DHT22;14031;50.158;8.626;2023-03-24T08:00:41;14.10;99.90
16174;DHT22;14031;50.158;8.626;2023-03-24T08:03:10;14.30;99.90
16174;DHT22;14031;50.158;8.626;2023-03-24T08:05:39;14.10;99.90
16174;DHT22;14031;50.158;8.626;2023-03-24T08:08:06;14.10;99.90
16174;DHT22;14031;50.158;8.626;2023-03-24T08:10:34;14.20;99.90
16174;DHT22;14031;50.158;8.626;2023-03-24T08:13:01;14.20;99.90
16174;DHT22;14031;50.158;8.626;2023-03-24T08:15:28;14.30;99.90
16174;DHT22;14031;50.158;8.626;2023-03-24T08:17:54;14.30;99.90
16174;DHT22;14031;50.158;8.626;2023-03-24T08:20:21;14.30;99.90
16174;DHT22;14031;50.158;8.626;2023-03-24T08:22:49;14.30;99.90
16174;DHT22;14031;50.158;8.626;2023-03-24T08:25:20;14.30;99.90
16174;DHT22;14031;50.158;8.626;2023-03-24T08:27:49;14.30;99.90
16174;DHT22;14031;50.158;8.626;2023-03-24T08:30:17;14.30;99.90
16174;DHT22;14031;50.158;8.626;2023-03-24T08:32:45;14.20;99.90
16174;DHT22;14031;50.158;8.626;2023-03-24T08:35:14;14.30;99.90
16174;DHT22;14031;50.158;8.626;2023-03-24T08:37:41;14.20;99.90
16174;DHT22;14031;50.158;8.626;2023-03-24T08:40:11;14.20;99.90
16174;DHT22;14031;50.158;8.626;2023-03-24T08:42:39;14.20;99.90
16174;DHT22;14031;50.158;8.626;2023-03-24T08:45:10;14.20;99.90
16174;DHT22;14031;50.158;8.626;2023-03-24T08:47:37;14.20;99.90
16174;DHT22;14031;50.158;8.626;2023-03-24T08:50:05;14.20;99.90
16174;DHT22;14031;50.158;8.626;2023-03-24T08:52:32;14.20;99.90
16174;DHT22;14031;50.158;8.626;2023-03-24T08:54:59;14.10;99.90
16174;DHT22;14031;50.158;8.626;2023-03-24T08:57:26;14.10;99.90
16174;DHT22;14031;50.158;8.626;2023-03-24T08:59:53;14.10;99.90
16174;DHT22;14031;50.158;8.626;2023-03-24T09:02:21;14.20;99.90
16174;DHT22;14031;50.158;8.626;2023-03-24T09:04:48;14.30;99.90
16174;DHT22;14031;50.158;8.626;2023-03-24T09:07:18;14.40;99.90
16174;DHT22;14031;50.158;8.626;2023-03-24T09:09:45;14.40;99.90
16174;DHT22;14031;50.158;8.626;2023-03-24T09:12:12;14.50;99.90
16174;DHT22;14031;50.158;8.626;2023-03-24T09:14:39;14.60;99.90
16174;DHT22;14031;50.158;8.626;2023-03-24T09:17:05;14.50;99.90
16174;DHT22;14031;50.158;8.626;2023-03-24T09:19:34;14.50;99.90
16174;DHT22;14031;50.158;8.626;2023-03-24T09:22:00;14.40;99.90
16174;DHT22;14031;50.158;8.626;2023-03-24T09:24:27;14.40;99.90
16174;DHT22;14031;50.158;8.626;2023-03-24T09:26:54;14.30;99.90
16174;DHT22;14031;50.158;8.626;2023-03-24T09:29:21;14.30;99.90
16174;DHT22;14031;50.158;8.626;2023-03-24T09:31:47;14.20;99.90
16174;DHT22;14031;50.158;8.626;2023-03-24T09:34:14;14.20;99.90
16174;DHT22;14031;50.158;8.626;2023-03-24T09:36:43;14.20;99.90
16174;DHT22;14031;50.158;8.626;2023-03-24T09:39:10;14.30;99.90
16174;DHT22;14031;50.158;8.626;2023-03-24T09:41:36;14.30;99.90
16174;DHT22;14031;50.158;8.626;2023-03-24T09:44:08;14.30;99.90
16174;DHT22;14031;50.158;8.626;2023-03-24T09:46:42;14.20;99.90
16174;DHT22;14031;50.158;8.626;2023-03-24T09:49:13;14.20;99.90
16174;DHT22;14031;50.158;8.626;2023-03-24T09:51:44;14.00;99.90
16174;DHT22;14031;50.158;8.626;2023-03-24T09:54:16;13.90;99.90
16174;DHT22;14031;50.158;8.626;2023-03-24T09:56:45;13.80;99.90
16174;DHT22;14031;50.158;8.626;2023-03-24T09:59:16;13.70;99.90
16174;DHT22;14031;50.158;8.626;2023-03-24T10:01:44;13.60;99.90
16174;DHT22;14031;50.158;8.626;2023-03-24T10:04:14;13.40;99.90
16174;DHT22;14031;50.158;8.626;2023-03-24T10:06:44;13.60;99.90
16174;DHT22;14031;50.158;8.626;2023-03-24T10:09:22;13.50;99.90
16174;DHT22;14031;50.158;8.626;2023-03-24T10:11:59;13.30;99.90
16174;DHT22;14031;50.158;8.626;2023-03-24T10:14:45;13.30;99.90
16174;DHT22;14031;50.158;8.626;2023-03-24T10:17:18;13.20;99.90
16174;DHT22;14031;50.158;8.626;2023-03-24T10:19:52;13.30;99.90
16174;DHT22;14031;50.158;8.626;2023-03-24T10:22:28;13.30;99.90
16174;DHT22;14031;50.158;8.626;2023-03-24T10:25:00;13.40;99.90
16174;DHT22;14031;50.158;8.626;2023-03-24T10:27:32;13.40;99.90
16174;DHT22;14031;50.158;8.626;2023-03-24T10:30:05;13.40;99.90
16174;DHT22;14031;50.158;8.626;2023-03-24T10:32:37;13.40;99.90
16174;DHT22;14031;50.158;8.626;2023-03-24T10:35:14;13.40;99.90
16174;DHT22;14031;50.158;8.626;2023-03-24T10:37:43;13.40;99.90
16174;DHT22;14031;50.158;8.626;2023-03-24T10:40:16;13.50;99.90
16174;DHT22;14031;50.158;8.626;2023-03-24T10:42:45;13.50;99.90
16174;DHT22;14031;50.158;8.626;2023-03-24T10:45:27;13.60;99.90
16174;DHT22;14031;50.158;8.626;2023-03-24T10:47:58;13.70;99.90
16174;DHT22;14031;50.158;8.626;2023-03-24T10:50:27;13.90;99.90
16174;DHT22;14031;50.158;8.626;2023-03-24T10:52:56;14.00;99.90
16174;DHT22;14031;50.158;8.626;2023-03-24T10:55:28;14.10;99.90
16174;DHT22;14031;50.158;8.626;2023-03-24T10:57:57;14.20;99.90
16174;DHT22;14031;50.158;8.626;2023-03-24T11:00:26;14.40;99.90
16174;DHT22;14031;50.158;8.626;2023-03-24T11:02:57;14.30;99.90
16174;DHT22;14031;50.158;8.626;2023-03-24T11:05:27;14.50;99.90
16174;DHT22;14031;50.158;8.626;2023-03-24T11:08:09;14.50;99.90
16174;DHT22;14031;50.158;8.626;2023-03-24T11:10:37;14.60;99.90
16174;DHT22;14031;50.158;8.626;2023-03-24T11:13:04;14.70;99.90
16174;DHT22;14031;50.158;8.626;2023-03-24T11:15:34;14.80;99.90
16174;DHT22;14031;50.158;8.626;2023-03-24T11:18:12;14.80;99.90
16174;DHT22;14031;50.158;8.626;2023-03-24T11:20:43;14.90;99.90
16174;DHT22;14031;50.158;8.626;2023-03-24T11:23:15;14.90;99.90
16174;DHT22;14031;50.158;8.626;2023-03-24T11:25:48;14.90;99.90
16174;DHT22;14031;50.158;8.626;2023-03-24T11:28:17;15.10;99.90
16174;DHT22;14031;50.158;8.626;2023-03-24T11:30:48;15.20;99.90
16174;DHT22;14031;50.158;8.626;2023-03-24T11:33:19;15.30;99.90
16174;DHT22;14031;50.158;8.626;2023-03-24T11:35:46;15.30;99.90
16174;DHT22;14031;50.158;8.626;2023-03-24T11:38:17;15.20;99.90
16174;DHT22;14031;50.158;8.626;2023-03-24T11:40:54;15.20;99.90
16174;DHT22;14031;50.158;8.626;2023-03-24T11:43:24;15.20;99.90
16174;DHT22;14031;50.158;8.626;2023-03-24T11:45:57;15.30;99.90
16174;DHT22;14031;50.158;8.626;2023-03-24T11:48:30;15.50;99.90
16174;DHT22;14031;50.158;8.626;2023-03-24T11:51:00;15.60;99.90
16174;DHT22;14031;50.158;8.626;2023-03-24T11:53:36;15.70;99.90
16174;DHT22;14031;50.158;8.626;2023-03-24T11:56:08;15.80;99.90
16174;DHT22;14031;50.158;8.626;2023-03-24T11:58:40;15.90;99.90
16174;DHT22;14031;50.158;8.626;2023-03-24T12:01:13;15.90;99.90
16174;DHT22;14031;50.158;8.626;2023-03-24T12:06:51;16.20;99.90
16174;DHT22;14031;50.158;8.626;2023-03-24T12:09:26;16.20;99.90
16174;DHT22;14031;50.158;8.626;2023-03-24T12:12:19;16.30;99.90
16174;DHT22;14031;50.158;8.626;2023-03-24T12:15:02;16.30;99.90
16174;DHT22;14031;50.158;8.626;2023-03-24T12:17:34;16.20;99.90
16174;DHT22;14031;50.158;8.626;2023-03-24T12:20:07;16.20;99.90
16174;DHT22;14031;50.158;8.626;2023-03-24T12:22:48;16.50;99.90
16174;DHT22;14031;50.158;8.626;2023-03-24T12:28:50;16.80;99.90
16174;DHT22;14031;50.158;8.626;2023-03-24T12:31:35;17.10;99.90
16174;DHT22;14031;50.158;8.626;2023-03-24T12:34:15;17.00;99.90
16174;DHT22;14031;50.158;8.626;2023-03-24T12:36:49;17.10;99.90
16174;DHT22;14031;50.158;8.626;2023-03-24T12:39:23;17.20;99.90
16174;DHT22;14031;50.158;8.626;2023-03-24T12:42:05;17.20;99.90
16174;DHT22;14031;50.158;8.626;2023-03-24T12:47:52;17.30;99.90
16174;DHT22;14031;50.158;8.626;2023-03-24T12:50:36;17.40;99.90
16174;DHT22;14031;50.158;8.626;2023-03-24T12:53:17;17.50;99.90
16174;DHT22;14031;50.158;8.626;2023-03-24T12:55:51;17.50;99.90
16174;DHT22;14031;50.158;8.626;2023-03-24T12:58:22;17.60;99.90
16174;DHT22;14031;50.158;8.626;2023-03-24T13:00:59;17.70;99.90
16174;DHT22;14031;50.158;8.626;2023-03-24T13:03:31;17.60;99.90
16174;DHT22;14031;50.158;8.626;2023-03-24T13:06:06;17.80;99.90
16174;DHT22;14031;50.158;8.626;2023-03-24T13:08:37;17.80;99.90
16174;DHT22;14031;50.158;8.626;2023-03-24T13:11:09;17.80;99.90
16174;DHT22;14031;50.158;8.626;2023-03-24T13:13:39;17.90;99.90
16174;DHT22;14031;50.158;8.626;2023-03-24T13:16:13;17.80;99.90
16174;DHT22;14031;50.158;8.626;2023-03-24T13:18:44;17.90;99.90
16174;DHT22;14031;50.158;8.626;2023-03-24T13:21:15;18.00;99.90
16174;DHT22;14031;50.158;8.626;2023-03-24T13:23:49;18.00;99.90
16174;DHT22;14031;50.158;8.626;2023-03-24T13:26:24;18.00;99.90
16174;DHT22;14031;50.158;8.626;2023-03-24T13:28:59;17.90;99.90
16174;DHT22;14031;50.158;8.626;2023-03-24T13:31:35;17.80;99.90
16174;DHT22;14031;50.158;8.626;2023-03-24T13:34:05;17.90;99.90
16174;DHT22;14031;50.158;8.626;2023-03-24T13:36:43;18.00;99.90
16174;DHT22;14031;50.158;8.626;2023-03-24T13:39:13;18.30;99.90
16174;DHT22;14031;50.158;8.626;2023-03-24T13:41:47;18.60;99.90
16174;DHT22;14031;50.158;8.626;2023-03-24T13:44:18;18.80;99.90
16174;DHT22;14031;50.158;8.626;2023-03-24T13:47:03;19.00;99.90
16174;DHT22;14031;50.158;8.626;2023-03-24T13:49:31;19.10;99.90
16174;DHT22;14031;50.158;8.626;2023-03-24T13:52:02;19.20;99.90
16174;DHT22;14031;50.158;8.626;2023-03-24T13:54:31;19.20;99.90
16174;DHT22;14031;50.158;8.626;2023-03-24T13:57:04;19.30;99.90
16174;DHT22;14031;50.158;8.626;2023-03-24T13:59:38;19.40;99.90
16174;DHT22;14031;50.158;8.626;2023-03-24T14:02:16;19.40;99.90
16174;DHT22;14031;50.158;8.626;2023-03-24T14:04:45;19.50;99.90
16174;DHT22;14031;50.158;8.626;2023-03-24T14:07:40;19.40;99.90
16174;DHT22;14031;50.158;8.626;2023-03-24T14:10:36;19.60;99.90
16174;DHT22;14031;50.158;8.626;2023-03-24T14:13:04;19.70;99.90
16174;DHT22;14031;50.158;8.626;2023-03-24T14:15:44;19.90;99.90
16174;DHT22;14031;50.158;8.626;2023-03-24T14:18:40;20.10;99.90
16174;DHT22;14031;50.158;8.626;2023-03-24T14:21:08;20.40;99.90
16174;DHT22;14031;50.158;8.626;2023-03-24T14:23:37;20.70;99.90
16174;DHT22;14031;50.158;8.626;2023-03-24T14:26:12;20.70;99.90
16174;DHT22;14031;50.158;8.626;2023-03-24T14:28:39;20.60;99.90
16174;DHT22;14031;50.158;8.626;2023-03-24T14:31:09;20.30;99.90
16174;DHT22;14031;50.158;8.626;2023-03-24T14:34:00;20.20;99.90
16174;DHT22;14031;50.158;8.626;2023-03-24T14:36:29;20.10;99.90
16174;DHT22;14031;50.158;8.626;2023-03-24T14:39:06;20.00;99.90
16174;DHT22;14031;50.158;8.626;2023-03-24T14:41:39;19.70;99.90
16174;DHT22;14031;50.158;8.626;2023-03-24T14:44:06;19.30;99.90
16174;DHT22;14031;50.158;8.626;2023-03-24T14:46:38;19.10;99.90
16174;DHT22;14031;50.158;8.626;2023-03-24T14:49:22;18.80;99.90
16174;DHT22;14031;50.158;8.626;2023-03-24T14:51:56;18.70;99.90
16174;DHT22;14031;50.158;8.626;2023-03-24T14:54:31;18.40;99.90
16174;DHT22;14031;50.158;8.626;2023-03-24T14:57:00;18.30;99.90
16174;DHT22;14031;50.158;8.626;2023-03-24T14:59:38;18.20;99.90
16174;DHT22;14031;50.158;8.626;2023-03-24T15:02:19;18.10;99.90
16174;DHT22;14031;50.158;8.626;2023-03-24T15:05:16;18.20;99.90
16174;DHT22;14031;50.158;8.626;2023-03-24T15:07:45;18.00;99.90
16174;DHT22;14031;50.158;8.626;2023-03-24T15:10:13;18.10;99.90
16174;DHT22;14031;50.158;8.626;2023-03-24T15:12:43;18.20;99.90
16174;DHT22;14031;50.158;8.626;2023-03-24T15:15:15;18.10;99.90
16174;DHT22;14031;50.158;8.626;2023-03-24T15:17:43;18.00;99.90
16174;DHT22;14031;50.158;8.626;2023-03-24T15:20:22;18.00;99.90
16174;DHT22;14031;50.158;8.626;2023-03-24T15:22:50;18.00;99.90
16174;DHT22;14031;50.158;8.626;2023-03-24T15:25:24;17.80;99.90
16174;DHT22;14031;50.158;8.626;2023-03-24T15:27:52;18.00;99.90
16174;DHT22;14031;50.158;8.626;2023-03-24T15:30:20;18.20;99.90
16174;DHT22;14031;50.158;8.626;2023-03-24T15:32:46;18.40;99.90
16174;DHT22;14031;50.158;8.626;2023-03-24T15:35:17;18.60;99.90
16174;DHT22;14031;50.158;8.626;2023-03-24T15:37:49;18.90;99.90
16174;DHT22;14031;50.158;8.626;2023-03-24T15:40:38;19.00;99.90
16174;DHT22;14031;50.158;8.626;2023-03-24T15:43:13;19.10;99.90
16174;DHT22;14031;50.158;8.626;2023-03-24T15:45:44;19.20;99.90
16174;DHT22;14031;50.158;8.626;2023-03-24T15:48:15;19.20;99.90
16174;DHT22;14031;50.158;8.626;2023-03-24T15:50:55;19.30;99.90
16174;DHT22;14031;50.158;8.626;2023-03-24T15:53:27;19.30;99.90
16174;DHT22;14031;50.158;8.626;2023-03-24T15:56:04;19.30;99.90
16174;DHT22;14031;50.158;8.626;2023-03-24T15:58:45;19.30;99.90
16174;DHT22;14031;50.158;8.626;2023-03-24T16:01:13;19.60;99.90
16174;DHT22;14031;50.158;8.626;2023-03-24T16:03:42;19.70;99.90
16174;DHT22;14031;50.158;8.626;2023-03-24T16:06:12;19.90;99.90
16174;DHT22;14031;50.158;8.626;2023-03-24T16:08:41;20.30;99.90
16174;DHT22;14031;50.158;8.626;2023-03-24T16:11:11;20.70;99.90
16174;DHT22;14031;50.158;8.626;2023-03-24T16:13:39;20.90;99.90
16174;DHT22;14031;50.158;8.626;2023-03-24T16:16:19;20.70;99.90